Time;durP1;ratioP1;P1;durP2;ratioP2;P2;SDS_P1;SDS_P2;PMS_P1;PMS_P2;Temp;Humidity;BMP_temperature;BMP_pressure;BME280_temperature;BME280_humidity;BME280_pressure;Samples;Min_cycle;Max_cycle;Signal;HPM_P1;HPM_P2
2023/07/14 00:01:19;;;;;;;5.68;1.25;;;17.80;79.30;;;;;;4877208;28;96994;-80
2023/07/14 00:03:45;;;;;;;4.75;1.35;;;17.70;79.50;;;;;;4879248;28;93355;-81
2023/07/14 00:06:12;;;;;;;5.13;1.98;;;17.70;79.60;;;;;;4879147;28;92120;-81
2023/07/14 00:08:39;;;;;;;5.03;1.48;;;17.60;79.50;;;;;;4862016;28;92278;-80
2023/07/14 00:11:19;;;;;;;2.67;0.98;;;17.60;79.50;;;;;;4877991;28;97139;-81
2023/07/14 00:13:45;;;;;;;2.20;1.13;;;17.60;79.60;;;;;;4876958;28;96116;-81
2023/07/14 00:16:37;;;;;;;2.15;1.20;;;17.60;80.00;;;;;;4876347;28;92963;-81
2023/07/14 00:19:11;;;;;;;3.33;1.35;;;17.50;80.20;;;;;;4858505;28;91922;-81
2023/07/14 00:21:37;;;;;;;3.95;1.48;;;17.40;80.90;;;;;;4870115;28;97436;-81
2023/07/14 00:24:10;;;;;;;3.92;1.42;;;17.30;81.30;;;;;;4878358;28;92870;-82
2023/07/14 00:26:36;;;;;;;3.55;1.50;;;17.30;81.80;;;;;;4863108;28;93661;-81
2023/07/14 00:29:17;;;;;;;3.38;1.30;;;17.20;82.00;;;;;;4862050;28;92744;-81
2023/07/14 00:31:43;;;;;;;4.00;1.30;;;17.10;81.90;;;;;;4861933;28;96799;-81
2023/07/14 00:34:09;;;;;;;5.95;1.55;;;17.10;82.30;;;;;;4861693;28;94503;-81
2023/07/14 00:36:35;;;;;;;2.40;1.50;;;17.10;82.80;;;;;;4877314;28;93175;-81
2023/07/14 00:39:00;;;;;;;3.47;1.42;;;17.00;83.10;;;;;;4876970;28;92749;-81
2023/07/14 00:41:26;;;;;;;3.75;1.70;;;16.90;83.20;;;;;;4879804;28;94048;-81
2023/07/14 00:43:52;;;;;;;3.45;1.90;;;16.90;83.40;;;;;;4879881;28;93256;-81
2023/07/14 00:46:25;;;;;;;3.95;1.90;;;16.90;84.00;;;;;;4861973;28;92531;-81
2023/07/14 00:48:53;;;;;;;7.10;1.60;;;16.80;84.10;;;;;;4876409;28;92761;-81
2023/07/14 00:51:20;;;;;;;4.13;1.88;;;16.80;84.20;;;;;;4876614;28;97632;-82
2023/07/14 00:53:46;;;;;;;3.53;1.70;;;16.70;84.60;;;;;;4861855;28;97190;-81
2023/07/14 00:56:12;;;;;;;4.38;1.67;;;16.70;84.90;;;;;;4880367;28;93026;-82
2023/07/14 00:58:47;;;;;;;8.35;1.83;;;16.60;84.70;;;;;;4862249;28;92152;-82
2023/07/14 01:01:13;;;;;;;3.88;1.52;;;16.60;84.90;;;;;;4861275;28;96606;-80
2023/07/14 01:03:43;;;;;;;5.70;1.70;;;16.50;85.00;;;;;;4860750;28;96499;-81
2023/07/14 01:06:36;;;;;;;1.92;1.17;;;16.50;85.70;;;;;;4876642;28;92902;-81
2023/07/14 01:09:04;;;;;;;3.15;1.60;;;16.50;86.00;;;;;;4871320;28;92358;-82
2023/07/14 01:11:42;;;;;;;7.45;1.98;;;16.40;86.00;;;;;;4880592;28;93602;-81
2023/07/14 01:14:15;;;;;;;6.20;1.88;;;16.40;86.30;;;;;;4878341;28;99555;-82
2023/07/14 01:16:43;;;;;;;5.55;1.52;;;16.40;86.10;;;;;;4876641;28;93663;-80
2023/07/14 01:19:25;;;;;;;3.03;1.45;;;16.40;86.40;;;;;;4878584;28;92215;-81
2023/07/14 01:21:58;;;;;;;3.80;1.20;;;16.30;86.30;;;;;;4876588;28;96701;-81
2023/07/14 01:24:28;;;;;;;;;;;16.30;86.80;;;;;;4879443;28;93200;-81
2023/07/14 01:26:58;;;;;;;2.85;1.35;;;16.30;86.80;;;;;;4863449;28;92788;-81
2023/07/14 01:29:25;;;;;;;3.53;1.27;;;16.30;86.90;;;;;;4880562;28;92734;-83
2023/07/14 01:31:51;;;;;;;3.65;1.70;;;16.20;87.00;;;;;;4876915;28;96505;-81
2023/07/14 01:34:17;;;;;;;6.65;1.60;;;16.30;87.40;;;;;;4877448;28;96270;-81
2023/07/14 01:36:44;;;;;;;7.25;1.83;;;16.20;87.90;;;;;;4862585;28;92921;-80
2023/07/14 01:39:11;;;;;;;3.33;1.50;;;16.20;87.90;;;;;;4878947;28;92714;-80
2023/07/14 01:41:37;;;;;;;3.55;1.20;;;16.10;87.90;;;;;;4879018;28;96969;-81
2023/07/14 01:44:05;;;;;;;2.65;1.30;;;16.10;88.10;;;;;;4870375;28;97570;-81
2023/07/14 01:46:31;;;;;;;6.50;1.85;;;16.10;88.60;;;;;;4863433;28;92357;-80
2023/07/14 01:49:01;;;;;;;4.88;1.50;;;16.10;88.40;;;;;;4881019;28;92616;-82
2023/07/14 01:51:30;;;;;;;2.88;1.25;;;16.00;88.30;;;;;;4862940;28;95423;-80
2023/07/14 01:54:02;;;;;;;2.92;1.60;;;16.00;88.80;;;;;;4877131;28;96589;-80
2023/07/14 01:56:29;;;;;;;3.33;1.88;;;15.90;88.70;;;;;;4879115;28;92725;-81
2023/07/14 01:59:03;;;;;;;3.05;1.33;;;15.90;89.20;;;;;;4878589;28;92216;-81
2023/07/14 02:01:30;;;;;;;2.47;1.20;;;15.90;88.90;;;;;;4877167;28;96666;-81
2023/07/14 02:03:57;;;;;;;6.18;1.70;;;15.80;89.00;;;;;;4867110;28;96304;-81
2023/07/14 02:06:23;;;;;;;4.45;1.70;;;15.80;89.30;;;;;;4877245;28;93105;-80
2023/07/14 02:08:50;;;;;;;1.85;1.38;;;15.80;89.10;;;;;;4860307;28;93004;-82
2023/07/14 02:11:19;;;;;;;2.85;1.40;;;15.70;89.30;;;;;;4876031;28;97203;-82
2023/07/14 02:13:46;;;;;;;3.95;1.48;;;15.60;90.00;;;;;;4860184;28;94752;-81
2023/07/14 02:16:15;;;;;;;5.55;1.80;;;15.60;90.00;;;;;;4859275;28;92990;-81
2023/07/14 02:18:42;;;;;;;6.28;1.75;;;15.50;90.10;;;;;;4874274;28;93197;-80
2023/07/14 02:21:10;;;;;;;7.65;2.00;;;15.50;90.30;;;;;;4859364;28;95750;-80
2023/07/14 02:23:39;;;;;;;5.20;1.80;;;15.40;90.40;;;;;;4878969;28;93115;-80
2023/07/14 02:26:33;;;;;;;4.75;1.77;;;15.40;90.60;;;;;;4877654;28;92581;-80
2023/07/14 02:28:58;;;;;;;;;;;15.40;90.40;;;;;;4876303;28;92689;-81
2023/07/14 02:31:33;;;;;;;4.50;1.73;;;15.40;90.50;;;;;;4859726;28;97846;-80
2023/07/14 02:33:59;;;;;;;3.45;1.67;;;15.30;90.70;;;;;;4875601;28;95099;-80
2023/07/14 02:37:00;;;;;;;5.00;1.70;;;15.30;90.70;;;;;;4860280;28;92235;-81
2023/07/14 02:39:35;;;;;;;4.57;1.75;;;15.30;90.60;;;;;;4874912;28;92556;-80
2023/07/14 02:42:01;;;;;;;4.88;1.67;;;15.20;90.70;;;;;;4875712;28;96627;-81
2023/07/14 02:44:37;;;;;;;4.45;1.58;;;15.20;90.80;;;;;;4867084;28;95338;-81
2023/07/14 02:47:22;;;;;;;2.00;1.40;;;15.10;90.80;;;;;;4859549;28;93220;-80
2023/07/14 02:49:48;;;;;;;2.42;1.50;;;15.10;90.80;;;;;;4876466;28;91945;-80
2023/07/14 02:52:15;;;;;;;3.67;1.40;;;15.00;90.70;;;;;;4859083;28;96843;-80
2023/07/14 02:54:41;;;;;;;6.65;1.90;;;15.00;90.90;;;;;;4858910;28;95579;-80
2023/07/14 02:57:06;;;;;;;3.70;1.52;;;14.90;91.00;;;;;;4875388;28;93649;-80
2023/07/14 02:59:32;;;;;;;3.65;1.75;;;14.90;90.90;;;;;;4877904;28;92803;-80
2023/07/14 03:01:59;;;;;;;4.82;1.33;;;14.90;91.00;;;;;;4875858;28;97034;-79
2023/07/14 03:04:24;;;;;;;3.30;1.50;;;14.80;91.10;;;;;;4876274;28;93490;-80
2023/07/14 03:06:50;;;;;;;5.00;1.75;;;14.80;91.10;;;;;;4876449;28;92950;-79
2023/07/14 03:09:16;;;;;;;5.05;1.73;;;14.70;91.20;;;;;;4876961;28;92459;-79
2023/07/14 03:11:43;;;;;;;4.15;1.58;;;14.70;91.30;;;;;;4878442;28;94168;-80
2023/07/14 03:14:10;;;;;;;3.70;2.10;;;14.70;91.50;;;;;;4881029;28;93136;-80
2023/07/14 03:16:36;;;;;;;7.20;1.80;;;14.70;91.50;;;;;;4879954;28;92730;-79
2023/07/14 03:19:02;;;;;;;4.38;2.05;;;14.60;91.60;;;;;;4869683;28;92952;-79
2023/07/14 03:21:29;;;;;;;2.92;1.65;;;14.60;91.70;;;;;;4878224;28;97528;-79
2023/07/14 03:23:54;;;;;;;5.88;1.88;;;14.50;91.70;;;;;;4877915;28;95701;-80
2023/07/14 03:26:21;;;;;;;4.07;1.75;;;14.50;91.80;;;;;;4882002;28;92732;-79
2023/07/14 03:28:47;;;;;;;5.45;2.00;;;14.50;91.90;;;;;;4863677;28;92695;-80
2023/07/14 03:31:13;;;;;;;2.35;1.52;;;14.40;92.20;;;;;;4879075;28;96175;-80
2023/07/14 03:33:39;;;;;;;3.92;1.88;;;14.40;92.20;;;;;;4878629;28;96031;-80
2023/07/14 03:36:09;;;;;;;2.92;1.50;;;14.30;92.50;;;;;;4879363;28;93024;-81
2023/07/14 03:38:40;;;;;;;3.17;2.00;;;14.30;92.50;;;;;;4882674;28;91566;-80
2023/07/14 03:41:06;;;;;;;2.97;1.73;;;14.30;92.40;;;;;;4863420;28;99881;-80
2023/07/14 03:43:32;;;;;;;3.08;1.85;;;14.30;92.60;;;;;;4880933;28;93087;-79
2023/07/14 03:45:58;;;;;;;4.63;1.77;;;14.20;92.70;;;;;;4862759;28;93583;-80
2023/07/14 03:48:24;;;;;;;7.05;1.92;;;14.20;92.70;;;;;;4879903;28;93237;-79
2023/07/14 03:50:51;;;;;;;4.53;2.00;;;14.20;92.70;;;;;;4879954;28;94200;-79
2023/07/14 03:53:16;;;;;;;6.13;1.88;;;14.30;92.70;;;;;;4878720;28;97725;-80
2023/07/14 03:55:46;;;;;;;5.50;2.00;;;14.30;92.60;;;;;;4879644;28;92830;-80
2023/07/14 03:58:11;;;;;;;4.68;1.98;;;14.30;92.50;;;;;;4863112;28;92778;-80
2023/07/14 04:00:37;;;;;;;6.65;2.00;;;14.20;92.70;;;;;;4863496;28;96396;-80
2023/07/14 04:03:04;;;;;;;4.60;1.90;;;14.30;92.80;;;;;;4881458;28;92055;-80
2023/07/14 04:05:30;;;;;;;5.47;1.55;;;14.20;92.80;;;;;;4879235;28;92976;-80
2023/07/14 04:07:56;;;;;;;6.25;2.05;;;14.20;92.70;;;;;;4863340;28;92788;-81
2023/07/14 04:10:22;;;;;;;7.93;2.08;;;14.20;92.80;;;;;;4878544;28;96351;-80
2023/07/14 04:12:49;;;;;;;2.75;1.90;;;14.20;92.90;;;;;;4863434;28;96827;-81
2023/07/14 04:15:14;;;;;;;4.50;2.33;;;14.10;92.90;;;;;;4879228;28;99984;-81
2023/07/14 04:17:41;;;;;;;3.90;1.65;;;14.10;92.90;;;;;;4864019;28;92750;-81
2023/07/14 04:20:07;;;;;;;6.90;2.22;;;14.10;93.10;;;;;;4879446;28;92721;-80
2023/07/14 04:22:33;;;;;;;5.05;2.22;;;14.10;93.20;;;;;;4879486;28;93583;-81
2023/07/14 04:24:59;;;;;;;4.68;1.98;;;14.10;93.40;;;;;;4879224;28;92937;-81
2023/07/14 04:27:29;;;;;;;3.05;1.90;;;14.10;93.40;;;;;;4855047;28;92420;-80
2023/07/14 04:29:55;;;;;;;5.28;2.47;;;14.10;93.70;;;;;;4864623;28;93847;-81
2023/07/14 04:32:22;;;;;;;5.20;2.13;;;14.10;93.70;;;;;;4872561;28;94736;-81
2023/07/14 04:34:50;;;;;;;5.82;2.53;;;14.10;93.80;;;;;;4878135;28;94167;-81
2023/07/14 04:37:17;;;;;;;7.78;3.08;;;14.20;94.10;;;;;;4869954;28;92887;-81
2023/07/14 04:39:44;;;;;;;8.60;2.92;;;14.20;94.30;;;;;;4871955;28;95862;-81
2023/07/14 04:42:11;;;;;;;5.72;3.10;;;14.20;94.40;;;;;;4881160;28;93781;-81
2023/07/14 04:44:37;;;;;;;5.88;3.10;;;14.30;94.60;;;;;;4868364;28;92692;-80
2023/07/14 04:47:03;;;;;;;9.10;3.30;;;14.30;94.50;;;;;;4851076;28;92579;-80
2023/07/14 04:49:29;;;;;;;9.45;3.42;;;14.30;94.40;;;;;;4882899;28;93895;-81
2023/07/14 04:51:54;;;;;;;5.70;2.83;;;14.40;94.50;;;;;;4867522;28;95173;-80
2023/07/14 04:54:23;;;;;;;6.63;3.25;;;14.40;94.50;;;;;;4866877;28;92229;-80
2023/07/14 04:56:50;;;;;;;7.03;3.40;;;14.50;94.60;;;;;;4867371;28;92726;-81
2023/07/14 04:59:16;;;;;;;8.13;2.90;;;14.50;94.60;;;;;;4883527;28;95444;-82
2023/07/14 05:01:41;;;;;;;11.07;3.97;;;14.50;94.60;;;;;;4867253;28;96878;-80
2023/07/14 05:04:07;;;;;;;6.97;3.58;;;14.60;94.50;;;;;;4882362;28;92578;-80
2023/07/14 05:06:36;;;;;;;6.55;3.15;;;14.60;94.70;;;;;;4865201;28;92704;-81
2023/07/14 05:09:03;;;;;;;7.75;3.42;;;14.70;94.60;;;;;;4880274;28;94386;-81
2023/07/14 05:11:29;;;;;;;9.93;3.67;;;14.70;94.60;;;;;;4882669;28;94895;-80
2023/07/14 05:13:54;;;;;;;10.30;4.63;;;14.70;94.50;;;;;;4882611;28;93382;-80
2023/07/14 05:16:21;;;;;;;7.55;3.50;;;14.80;94.50;;;;;;4862832;28;92230;-80
2023/07/14 05:18:46;;;;;;;7.22;3.88;;;14.90;94.40;;;;;;4871185;28;95564;-80
2023/07/14 05:21:12;;;;;;;8.90;4.10;;;14.90;94.20;;;;;;4864827;28;96033;-80
2023/07/14 05:23:39;;;;;;;14.18;4.20;;;15.10;94.40;;;;;;4883225;28;93415;-80
2023/07/14 05:26:05;;;;;;;7.68;3.40;;;15.20;94.10;;;;;;4877419;28;94490;-80
2023/07/14 05:28:31;;;;;;;6.55;3.92;;;15.30;94.20;;;;;;4868858;28;95317;-81
2023/07/14 05:30:58;;;;;;;5.97;3.17;;;15.40;94.00;;;;;;4877456;28;93715;-82
2023/07/14 05:33:37;;;;;;;10.80;3.60;;;15.50;93.90;;;;;;4863094;28;93564;-84
2023/07/14 05:36:03;;;;;;;7.53;3.25;;;15.60;93.80;;;;;;4862387;28;92699;-85
2023/07/14 05:38:29;;;;;;;9.30;4.28;;;15.70;93.40;;;;;;4862538;28;95741;-85
2023/07/14 05:40:58;;;;;;;12.52;3.40;;;15.90;93.10;;;;;;4876454;28;95002;-84
2023/07/14 05:43:25;;;;;;;7.38;3.30;;;16.00;93.00;;;;;;4846575;28;92714;-85
2023/07/14 05:45:51;;;;;;;6.63;3.20;;;16.10;92.90;;;;;;4860782;28;92763;-85
2023/07/14 05:48:17;;;;;;;8.23;3.80;;;16.30;92.70;;;;;;4860399;28;96337;-85
2023/07/14 05:50:47;;;;;;;6.88;3.30;;;16.40;92.50;;;;;;4860595;28;97048;-87
2023/07/14 05:53:15;;;;;;;9.30;3.47;;;16.50;92.20;;;;;;4860224;28;92721;-86
2023/07/14 05:55:41;;;;;;;6.30;3.30;;;16.60;92.50;;;;;;4867853;28;92417;-86
2023/07/14 05:58:09;;;;;;;9.93;3.35;;;16.80;92.10;;;;;;4857115;28;96822;-84
2023/07/14 06:00:38;;;;;;;11.07;3.15;;;16.90;91.50;;;;;;4853718;28;95945;-86
2023/07/14 06:03:06;;;;;;;9.70;3.55;;;17.10;91.00;;;;;;4867079;28;92922;-84
2023/07/14 06:05:32;;;;;;;5.32;2.75;;;17.20;91.50;;;;;;4877209;28;92159;-85
2023/07/14 06:07:57;;;;;;;11.73;3.03;;;17.40;90.60;;;;;;4860085;28;96636;-87
2023/07/14 06:10:23;;;;;;;6.20;2.63;;;17.50;90.50;;;;;;4859965;28;96002;-86
2023/07/14 06:12:49;;;;;;;8.95;2.92;;;17.70;90.00;;;;;;4874120;28;93995;-87
2023/07/14 06:15:15;;;;;;;8.63;3.00;;;17.80;88.20;;;;;;4858670;28;92719;-85
2023/07/14 06:17:40;;;;;;;9.65;2.60;;;18.00;86.80;;;;;;4858501;28;96459;-87
2023/07/14 06:20:07;;;;;;;10.88;2.75;;;18.10;86.70;;;;;;4859762;28;96065;-85
2023/07/14 06:22:32;;;;;;;6.85;2.78;;;18.30;86.80;;;;;;4867412;28;92845;-86
2023/07/14 06:25:00;;;;;;;9.23;2.80;;;18.40;85.60;;;;;;4873688;28;93062;-86
2023/07/14 06:27:44;;;;;;;4.93;2.40;;;18.60;83.60;;;;;;4873465;28;96392;-85
2023/07/14 06:30:10;;;;;;;6.03;2.55;;;18.70;82.30;;;;;;4866261;28;96217;-87
2023/07/14 06:32:39;;;;;;;4.38;2.17;;;18.80;83.20;;;;;;4861180;28;93233;-85
2023/07/14 06:35:06;;;;;;;8.18;2.25;;;18.90;82.20;;;;;;4868840;28;94087;-85
2023/07/14 06:37:32;;;;;;;7.20;3.30;;;19.10;81.30;;;;;;4868071;28;97407;-85
2023/07/14 06:39:57;;;;;;;6.28;2.20;;;19.20;80.70;;;;;;4873384;28;97549;-85
2023/07/14 06:42:23;;;;;;;5.53;2.17;;;19.30;80.40;;;;;;4858913;28;93225;-84
2023/07/14 06:44:49;;;;;;;12.05;2.80;;;19.40;81.50;;;;;;4859387;28;92791;-85
2023/07/14 06:47:15;;;;;;;8.05;2.67;;;19.50;78.40;;;;;;4859047;28;96454;-81
2023/07/14 06:49:41;;;;;;;5.15;1.80;;;19.50;78.10;;;;;;4875269;28;92827;-83
2023/07/14 06:52:07;;;;;;;6.40;2.75;;;19.60;77.40;;;;;;4875624;28;92460;-83
2023/07/14 06:54:33;;;;;;;7.07;2.08;;;19.70;77.40;;;;;;4857388;28;92047;-82
2023/07/14 06:56:59;;;;;;;4.13;2.10;;;19.80;77.80;;;;;;4857737;28;96918;-82
2023/07/14 06:59:25;;;;;;;5.35;2.30;;;19.90;76.80;;;;;;4876769;28;93320;-83
2023/07/14 07:01:51;;;;;;;4.55;2.20;;;20.10;76.50;;;;;;4875093;28;93432;-83
2023/07/14 07:04:16;;;;;;;7.80;2.53;;;20.10;75.90;;;;;;4865902;28;93085;-83
2023/07/14 07:06:42;;;;;;;10.93;2.45;;;20.20;76.00;;;;;;4858522;28;97027;-83
2023/07/14 07:09:09;;;;;;;8.30;2.35;;;20.30;75.20;;;;;;4857918;28;94843;-83
2023/07/14 07:11:34;;;;;;;8.82;2.63;;;20.40;75.60;;;;;;4860020;28;92546;-83
2023/07/14 07:14:00;;;;;;;6.53;2.42;;;20.50;75.20;;;;;;4858978;28;92656;-83
2023/07/14 07:16:26;;;;;;;6.40;2.00;;;20.70;75.10;;;;;;4859002;28;95385;-82
2023/07/14 07:18:51;;;;;;;4.82;2.20;;;20.80;74.80;;;;;;4859206;28;95827;-82
2023/07/14 07:21:17;;;;;;;5.40;1.98;;;20.90;73.50;;;;;;4858474;28;92502;-82
2023/07/14 07:23:42;;;;;;;6.90;2.38;;;21.00;73.90;;;;;;4874131;28;92881;-82
2023/07/14 07:26:08;;;;;;;7.88;2.80;;;21.00;72.50;;;;;;4873269;28;97972;-81
2023/07/14 07:28:34;;;;;;;5.30;2.30;;;21.10;71.60;;;;;;4875471;28;94999;-82
2023/07/14 07:31:09;;;;;;;7.28;2.30;;;21.10;73.50;;;;;;4867068;28;92721;-82
2023/07/14 07:33:37;;;;;;;8.23;2.28;;;21.30;72.50;;;;;;4873033;28;94445;-82
2023/07/14 07:36:14;;;;;;;6.97;2.35;;;21.50;72.10;;;;;;4872802;28;95646;-82
2023/07/14 07:38:42;;;;;;;9.20;2.17;;;21.70;71.00;;;;;;4857807;28;96205;-82
2023/07/14 07:41:08;;;;;;;10.38;2.50;;;21.80;70.00;;;;;;4873721;28;92967;-82
2023/07/14 07:43:33;;;;;;;8.00;2.33;;;21.90;71.00;;;;;;4873913;28;91710;-82
2023/07/14 07:45:59;;;;;;;10.13;2.97;;;21.90;70.20;;;;;;4871999;28;96378;-82
2023/07/14 07:48:24;;;;;;;9.68;2.95;;;22.00;69.90;;;;;;4872716;28;96164;-83
2023/07/14 07:50:50;;;;;;;12.43;2.90;;;22.10;69.60;;;;;;4857841;28;93539;-83
2023/07/14 07:53:16;;;;;;;10.10;2.47;;;22.20;70.20;;;;;;4867644;28;93344;-83
2023/07/14 07:55:41;;;;;;;8.30;2.47;;;22.30;70.60;;;;;;4858215;28;97028;-82
2023/07/14 07:58:07;;;;;;;7.57;1.90;;;22.40;70.80;;;;;;4857418;28;94660;-82
2023/07/14 08:00:33;;;;;;;6.28;2.78;;;22.60;72.20;;;;;;4857514;28;92798;-82
2023/07/14 08:02:59;;;;;;;8.55;2.53;;;22.90;72.70;;;;;;4858747;28;92914;-82
2023/07/14 08:05:25;;;;;;;6.22;2.25;;;23.10;67.50;;;;;;4858703;28;95168;-84
2023/07/14 08:07:51;;;;;;;5.60;1.80;;;23.10;65.90;;;;;;4858804;28;96169;-85
2023/07/14 08:10:16;;;;;;;6.95;1.80;;;23.00;66.50;;;;;;4850382;28;92680;-84
2023/07/14 08:12:45;;;;;;;5.95;2.10;;;22.80;65.70;;;;;;4857893;28;92869;-85
2023/07/14 08:15:11;;;;;;;4.47;2.28;;;22.80;66.20;;;;;;4857918;28;97018;-85
2023/07/14 08:17:55;;;;;;;6.03;2.03;;;22.70;67.00;;;;;;4860472;28;96150;-85
2023/07/14 08:20:21;;;;;;;8.15;1.90;;;22.80;69.10;;;;;;4851494;28;92569;-82
2023/07/14 08:22:49;;;;;;;8.63;2.35;;;23.00;67.10;;;;;;4853466;28;92883;-82
2023/07/14 08:25:15;;;;;;;4.13;2.28;;;23.10;68.70;;;;;;4860475;28;96698;-81
2023/07/14 08:27:46;;;;;;;5.63;2.60;;;23.30;68.20;;;;;;4860835;28;96691;-87
2023/07/14 08:30:12;;;;;;;6.18;2.00;;;23.40;66.50;;;;;;4861159;28;92582;-82
2023/07/14 08:32:38;;;;;;;4.88;1.90;;;23.50;67.80;;;;;;4861983;28;91898;-81
2023/07/14 08:35:04;;;;;;;4.50;1.65;;;23.50;64.30;;;;;;4861127;28;96418;-82
2023/07/14 08:37:32;;;;;;;5.88;1.98;;;23.40;64.20;;;;;;4877703;28;95454;-82
2023/07/14 08:39:57;;;;;;;6.60;2.28;;;23.50;65.70;;;;;;4860892;28;93859;-81
2023/07/14 08:42:37;;;;;;;4.82;2.25;;;23.50;63.80;;;;;;4868393;28;92953;-81
2023/07/14 08:45:21;;;;;;;7.38;2.55;;;23.50;65.60;;;;;;4860088;28;96564;-81
2023/07/14 08:47:57;;;;;;;;;;;23.70;64.60;;;;;;4861428;28;96334;-81
2023/07/14 08:50:27;;;;;;;7.57;2.33;;;23.90;66.80;;;;;;4863046;28;92898;-83
2023/07/14 08:52:56;;;;;;;6.13;2.15;;;24.10;64.80;;;;;;4860326;28;93787;-81
2023/07/14 08:55:26;;;;;;;7.55;2.58;;;24.20;61.10;;;;;;4875155;28;96450;-82
2023/07/14 08:58:01;;;;;;;9.88;1.88;;;24.40;63.20;;;;;;4865605;28;96886;-82
2023/07/14 09:00:36;;;;;;;5.75;1.98;;;24.50;62.20;;;;;;4861081;28;92594;-84
2023/07/14 09:03:09;;;;;;;5.78;1.90;;;24.50;64.60;;;;;;4876468;28;92896;-81
2023/07/14 09:05:44;;;;;;;3.70;1.75;;;24.80;61.70;;;;;;4876368;28;97810;-81
2023/07/14 09:08:12;;;;;;;3.90;2.20;;;25.00;62.30;;;;;;4866437;28;101844;-81
2023/07/14 09:10:48;;;;;;;5.00;2.28;;;25.10;59.80;;;;;;4873654;28;93183;-81
2023/07/14 09:13:37;;;;;;;5.85;1.27;;;25.00;59.50;;;;;;4873028;28;92436;-81
2023/07/14 09:16:03;;;;;;;6.20;1.73;;;25.00;60.20;;;;;;4859032;28;95510;-81
2023/07/14 09:19:13;;;;;;;4.10;1.77;;;25.10;58.80;;;;;;4858226;28;97916;-81
2023/07/14 09:21:46;;;;;;;7.90;1.63;;;25.00;58.70;;;;;;4843655;28;93142;-82
2023/07/14 09:24:53;;;;;;;3.93;1.50;;;24.90;57.50;;;;;;4873537;28;92129;-81
2023/07/14 09:27:24;;;;;;;4.50;1.25;;;25.00;60.00;;;;;;4858036;28;95497;-81
2023/07/14 09:29:52;;;;;;;3.13;1.75;;;25.10;58.30;;;;;;4859580;28;95966;-81
2023/07/14 09:32:39;;;;;;;4.63;1.40;;;25.30;58.00;;;;;;4857786;28;93897;-81
2023/07/14 09:35:09;;;;;;;3.25;0.98;;;25.50;58.80;;;;;;4876845;28;92434;-81
2023/07/14 09:38:15;;;;;;;4.15;1.33;;;25.60;55.70;;;;;;4858719;28;95726;-82
2023/07/14 09:40:43;;;;;;;4.85;1.30;;;25.70;55.90;;;;;;4874381;28;95004;-82
2023/07/14 09:43:10;;;;;;;4.00;1.50;;;25.70;55.10;;;;;;4859456;28;92372;-83
2023/07/14 09:45:40;;;;;;;7.43;1.42;;;25.80;55.90;;;;;;4849223;28;92938;-83
2023/07/14 09:48:08;;;;;;;4.38;1.55;;;25.90;55.20;;;;;;4856643;28;97155;-82
2023/07/14 09:50:56;;;;;;;6.13;1.60;;;26.00;55.50;;;;;;4860048;28;95000;-83
2023/07/14 09:53:31;;;;;;;4.72;1.40;;;26.20;55.50;;;;;;4875008;28;92699;-83
2023/07/14 09:56:16;;;;;;;5.25;1.58;;;26.30;54.30;;;;;;4872675;28;92370;-82
2023/07/14 09:58:52;;;;;;;6.00;1.70;;;26.50;54.70;;;;;;4874281;28;98041;-81
2023/07/14 10:01:18;;;;;;;5.97;1.77;;;26.70;54.90;;;;;;4874083;28;96968;-81
2023/07/14 10:03:51;;;;;;;4.57;1.77;;;27.00;55.40;;;;;;4875688;28;92832;-81
2023/07/14 10:06:28;;;;;;;3.65;1.45;;;27.20;52.30;;;;;;4858699;28;92445;-80
2023/07/14 10:08:59;;;;;;;3.78;1.40;;;27.20;50.60;;;;;;4852719;28;97101;-82
2023/07/14 10:11:50;;;;;;;2.72;1.33;;;27.20;50.60;;;;;;4873144;28;95126;-83
2023/07/14 10:14:37;;;;;;;4.55;2.03;;;27.10;53.10;;;;;;4873599;28;92578;-82
2023/07/14 10:17:04;;;;;;;4.28;1.45;;;27.40;51.20;;;;;;4859107;28;91975;-82
2023/07/14 10:19:43;;;;;;;2.45;1.63;;;27.60;49.60;;;;;;4858997;28;95262;-83
2023/07/14 10:22:18;;;;;;;2.88;1.30;;;27.60;48.40;;;;;;4865193;28;96362;-83
2023/07/14 10:24:53;;;;;;;3.83;1.45;;;27.60;49.50;;;;;;4857120;28;93955;-83
2023/07/14 10:27:27;;;;;;;2.13;1.30;;;27.40;47.70;;;;;;4858935;28;92246;-82
2023/07/14 10:30:05;;;;;;;6.00;1.20;;;27.40;50.00;;;;;;4859569;28;95831;-82
2023/07/14 10:32:40;;;;;;;3.72;1.40;;;27.60;48.30;;;;;;4859347;28;96277;-82
2023/07/14 10:35:33;;;;;;;3.55;1.45;;;27.80;48.30;;;;;;4874855;28;92285;-82
2023/07/14 10:38:32;;;;;;;3.58;1.63;;;27.80;50.40;;;;;;4856205;28;92798;-82
2023/07/14 10:41:10;;;;;;;4.50;1.45;;;28.00;47.70;;;;;;4854733;28;95870;-83
2023/07/14 10:44:16;;;;;;;3.65;1.75;;;28.00;49.50;;;;;;4846026;28;96329;-87
2023/07/14 10:46:52;;;;;;;6.88;1.83;;;28.10;47.90;;;;;;4799101;29;92922;-83
2023/07/14 10:49:34;;;;;;;5.82;1.48;;;28.00;49.10;;;;;;4810794;29;92610;-83
2023/07/14 10:52:37;;;;;;;6.00;1.60;;;28.10;51.90;;;;;;4815690;29;96949;-82
2023/07/14 11:02:07;;;;;;;3.92;1.40;;;28.50;45.80;;;;;;4807839;29;93966;-84
2023/07/14 11:04:42;;;;;;;2.85;1.40;;;28.20;46.90;;;;;;4792320;29;95482;-83
2023/07/14 11:07:16;;;;;;;5.97;2.13;;;28.10;47.10;;;;;;4807090;29;95378;-84
2023/07/14 11:17:13;;;;;;;;;;;;;;;;;;;;;
2023/07/14 11:30:40;;;;;;;4.57;1.55;;;28.40;46.10;;;;;;4662010;29;92532;-82
2023/07/14 11:37:29;;;;;;;;;;;;;;;;;;;;;
2023/07/14 11:40:52;;;;;;;;;;;;;;;;;;;;;
2023/07/14 11:44:18;;;;;;;6.93;2.20;;;28.90;46.20;;;;;;4715533;29;121096;-83
2023/07/14 11:47:21;;;;;;;4.88;1.80;;;28.90;46.80;;;;;;4717378;29;95465;-86
2023/07/14 11:50:58;;;;;;;4.97;1.80;;;29.00;46.00;;;;;;4740722;29;92745;-85
2023/07/14 11:54:08;;;;;;;3.88;1.50;;;28.80;45.80;;;;;;4672955;29;93067;-87
2023/07/14 12:05:01;;;;;;;;;;;;;;;;;;;;;
2023/07/14 12:15:36;;;;;;;4.15;2.20;;;29.60;42.80;;;;;;4237412;30;10518342;-84
2023/07/14 12:29:02;;;;;;;7.53;2.30;;;29.80;43.30;;;;;;4603864;30;94180;-87
2023/07/14 12:38:48;;;;;;;5.30;1.83;;;29.40;44.30;;;;;;4642526;30;93002;-84
2023/07/14 12:48:45;;;;;;;5.13;1.60;;;29.50;44.10;;;;;;4739862;29;92893;-84
2023/07/14 12:52:01;;;;;;;;;;;;;;;;;;;;;
2023/07/14 12:58:52;;;;;;;3.45;1.77;;;30.20;42.30;;;;;;4732634;29;95208;-83
2023/07/14 13:12:33;;;;;;;4.40;1.67;;;31.90;38.70;;;;;;4620875;30;96081;-83
2023/07/14 13:19:58;;;;;;;3.80;1.67;;;31.90;39.60;;;;;;4653743;30;92661;-85
2023/07/14 13:40:09;;;;;;;;;;;;;;;;;;;;;
2023/07/14 13:42:49;;;;;;;7.95;1.75;;;32.40;40.90;;;;;;4739024;29;108944;-85
2023/07/14 13:49:31;;;;;;;;;;;;;;;;;;;;;
2023/07/14 13:52:30;;;;;;;3.13;1.33;;;31.80;37.80;;;;;;4792090;29;126259;-85
2023/07/14 14:05:29;;;;;;;3.50;1.40;;;31.50;41.10;;;;;;4744096;29;92549;-85
2023/07/14 14:08:03;;;;;;;4.22;1.40;;;31.40;39.30;;;;;;4735345;29;92717;-84
2023/07/14 14:10:29;;;;;;;4.82;1.05;;;31.30;38.90;;;;;;4802885;29;93501;-84
2023/07/14 14:13:00;;;;;;;5.60;1.13;;;31.30;40.40;;;;;;4794214;29;96412;-84
2023/07/14 14:15:47;;;;;;;3.97;1.77;;;31.60;39.60;;;;;;4806074;29;99057;-84
2023/07/14 14:18:28;;;;;;;7.07;1.30;;;31.70;39.70;;;;;;4806894;29;92663;-83
2023/07/14 14:21:17;;;;;;;2.08;1.13;;;31.60;37.90;;;;;;4802787;29;92725;-83
2023/07/14 14:27:24;;;;;;;5.90;1.20;;;30.70;38.80;;;;;;4765341;29;92538;-83
2023/07/14 14:30:16;;;;;;;2.85;1.20;;;30.50;39.80;;;;;;4789503;29;92130;-84
2023/07/14 14:33:14;;;;;;;4.70;1.17;;;30.40;41.50;;;;;;4844232;28;93029;-83
2023/07/14 14:36:08;;;;;;;3.08;1.00;;;30.30;41.10;;;;;;4855274;28;95849;-83
2023/07/14 14:38:34;;;;;;;;;;;30.10;40.30;;;;;;4876425;28;96233;-83
2023/07/14 14:41:03;;;;;;;3.15;1.50;;;30.00;41.30;;;;;;4861253;28;92573;-82
2023/07/14 14:43:31;;;;;;;2.75;1.40;;;29.90;40.90;;;;;;4859231;28;93377;-84
2023/07/14 14:46:03;;;;;;;7.03;1.33;;;29.70;41.70;;;;;;4858502;28;95540;-83
2023/07/14 14:48:31;;;;;;;5.07;1.20;;;29.50;41.90;;;;;;4874597;28;94971;-84
2023/07/14 14:50:59;;;;;;;3.10;1.00;;;29.30;42.50;;;;;;4875804;28;92169;-84
2023/07/14 14:53:30;;;;;;;6.38;1.15;;;29.30;43.50;;;;;;4875401;28;92741;-83
2023/07/14 14:56:05;;;;;;;3.60;1.13;;;29.50;45.10;;;;;;4873992;28;95851;-84
2023/07/14 14:58:33;;;;;;;3.30;1.20;;;29.70;42.70;;;;;;4858264;28;94246;-83
2023/07/14 15:01:20;;;;;;;3.65;1.23;;;29.80;44.20;;;;;;4874953;28;92610;-83
2023/07/14 15:04:12;;;;;;;3.78;1.10;;;29.90;42.40;;;;;;4854567;28;93674;-85
2023/07/14 15:10:39;;;;;;;6.13;1.13;;;30.60;45.20;;;;;;4850517;28;94506;-85
2023/07/14 15:13:26;;;;;;;3.63;1.15;;;31.60;41.90;;;;;;4859001;28;92488;-84
2023/07/14 15:15:59;;;;;;;5.57;1.10;;;32.10;39.70;;;;;;4861941;28;93009;-82
2023/07/14 15:18:25;;;;;;;2.67;1.02;;;32.40;40.50;;;;;;4857372;28;95140;-84
2023/07/14 15:20:52;;;;;;;4.30;1.08;;;32.60;40.30;;;;;;4858542;28;95816;-84
2023/07/14 15:23:18;;;;;;;1.10;0.70;;;33.00;41.00;;;;;;4860891;28;91873;-83
2023/07/14 15:25:51;;;;;;;6.70;1.30;;;33.30;41.00;;;;;;4873726;28;92702;-83
2023/07/14 15:28:21;;;;;;;2.58;0.80;;;33.80;40.70;;;;;;4859116;28;97421;-82
2023/07/14 15:30:47;;;;;;;4.47;1.15;;;34.50;40.70;;;;;;4874592;28;96699;-82